Time;durP1;ratioP1;P1;durP2;ratioP2;P2;SDS_P1;SDS_P2;PMS_P1;PMS_P2;Temp;Humidity;BMP_temperature;BMP_pressure;BME280_temperature;BME280_humidity;BME280_pressure;Samples;Min_cycle;Max_cycle;Signal;HPM_P1;HPM_P2
2021/01/31 00:00:39;;;;;;;4.90;4.37;;;;;;;;;;5080922;28;20426;-58
2021/01/31 00:03:06;;;;;;;5.10;4.60;;;;;;;;;;5080285;28;20433;-57
2021/01/31 00:05:33;;;;;;;5.47;4.30;;;;;;;;;;5094916;28;20461;-59
2021/01/31 00:07:59;;;;;;;5.10;4.60;;;;;;;;;;5078942;28;20487;-58
2021/01/31 00:10:30;;;;;;;6.80;4.60;;;;;;;;;;5103035;28;20518;-59
2021/01/31 00:13:00;;;;;;;5.23;4.40;;;;;;;;;;5106331;28;20454;-58
2021/01/31 00:15:29;;;;;;;5.57;4.40;;;;;;;;;;5093261;28;20429;-58
2021/01/31 00:17:59;;;;;;;5.37;4.50;;;;;;;;;;5079366;28;20464;-58
2021/01/31 00:20:30;;;;;;;4.40;3.80;;;;;;;;;;5088140;28;20421;-58
2021/01/31 00:22:56;;;;;;;5.87;4.60;;;;;;;;;;5109568;28;20929;-58
2021/01/31 00:25:23;;;;;;;4.90;4.37;;;;;;;;;;5104994;28;20428;-58
2021/01/31 00:27:49;;;;;;;5.93;4.70;;;;;;;;;;5108863;28;20434;-58
2021/01/31 00:30:27;;;;;;;5.40;4.23;;;;;;;;;;5098505;28;20759;-59
2021/01/31 00:32:53;;;;;;;5.10;4.60;;;;;;;;;;5099948;28;20520;-59
2021/01/31 00:35:21;;;;;;;5.20;4.70;;;;;;;;;;5103080;28;20441;-58
2021/01/31 00:37:47;;;;;;;4.83;4.30;;;;;;;;;;5093497;28;20550;-58
2021/01/31 00:40:14;;;;;;;5.17;4.67;;;;;;;;;;5102935;28;20899;-59
2021/01/31 00:42:40;;;;;;;4.93;4.43;;;;;;;;;;5095456;28;20526;-58
2021/01/31 00:45:08;;;;;;;5.50;4.60;;;;;;;;;;5095424;28;20422;-58
2021/01/31 00:47:34;;;;;;;4.93;4.47;;;;;;;;;;5074810;28;20426;-58
2021/01/31 00:50:00;;;;;;;6.20;5.10;;;;;;;;;;5084340;28;20967;-58
2021/01/31 00:52:26;;;;;;;4.03;3.63;;;;;;;;;;5099586;28;20476;-58
2021/01/31 00:54:53;;;;;;;5.70;4.40;;;;;;;;;;5097851;28;20432;-58
2021/01/31 00:57:19;;;;;;;4.97;4.47;;;;;;;;;;5090622;28;20438;-58
2021/01/31 00:59:46;;;;;;;5.10;4.47;;;;;;;;;;5103323;28;20425;-57
2021/01/31 01:02:19;;;;;;;6.03;4.43;;;;;;;;;;5085642;28;20431;-59
2021/01/31 01:04:46;;;;;;;5.57;4.53;;;;;;;;;;5082533;28;20575;-58
2021/01/31 01:07:12;;;;;;;5.67;4.20;;;;;;;;;;5102717;28;20425;-58
2021/01/31 01:09:39;;;;;;;4.90;4.40;;;;;;;;;;5105681;28;20533;-59
2021/01/31 01:12:06;;;;;;;6.03;4.90;;;;;;;;;;5078016;28;20422;-58
2021/01/31 01:14:32;;;;;;;5.47;4.90;;;;;;;;;;5073262;28;20491;-58
2021/01/31 01:16:59;;;;;;;5.10;4.60;;;;;;;;;;5094532;28;20440;-59
2021/01/31 01:19:26;;;;;;;6.27;5.13;;;;;;;;;;5102379;28;20417;-58
2021/01/31 01:21:52;;;;;;;6.33;5.37;;;;;;;;;;5084712;28;20491;-58
2021/01/31 01:24:18;;;;;;;5.03;4.53;;;;;;;;;;5080632;28;20930;-59
2021/01/31 01:26:45;;;;;;;4.77;4.13;;;;;;;;;;5083128;28;20466;-58
2021/01/31 01:29:14;;;;;;;5.07;4.53;;;;;;;;;;5092364;28;20421;-58
2021/01/31 01:31:41;;;;;;;4.77;4.27;;;;;;;;;;5093227;28;20426;-61
2021/01/31 01:34:07;;;;;;;5.93;4.37;;;;;;;;;;5090588;28;20536;-58
2021/01/31 01:36:33;;;;;;;4.73;4.20;;;;;;;;;;5089847;28;20409;-58
2021/01/31 01:39:00;;;;;;;5.37;4.60;;;;;;;;;;5093087;28;20402;-58
2021/01/31 01:41:27;;;;;;;4.97;3.97;;;;;;;;;;5098732;28;20398;-58
2021/01/31 01:43:59;;;;;;;5.40;4.77;;;;;;;;;;5107922;28;20420;-58
2021/01/31 01:46:34;;;;;;;4.97;4.40;;;;;;;;;;5090964;28;20425;-58
2021/01/31 01:49:02;;;;;;;5.63;5.00;;;;;;;;;;5099676;28;20409;-59
2021/01/31 01:51:49;;;;;;;5.13;4.20;;;;;;;;;;5076630;28;20496;-58
2021/01/31 01:54:18;;;;;;;5.70;4.80;;;;;;;;;;5071822;28;20445;-58
2021/01/31 01:56:47;;;;;;;5.00;4.50;;;;;;;;;;5089159;28;20406;-58
2021/01/31 01:59:13;;;;;;;5.80;4.53;;;;;;;;;;5092095;28;20481;-58
2021/01/31 02:01:43;;;;;;;5.23;4.60;;;;;;;;;;5093806;28;20440;-58
2021/01/31 02:04:14;;;;;;;5.90;4.93;;;;;;;;;;5090932;28;20424;-58
2021/01/31 02:06:40;;;;;;;4.77;4.27;;;;;;;;;;5100391;28;20437;-58
2021/01/31 02:09:07;;;;;;;4.93;4.40;;;;;;;;;;5094434;28;20452;-58
2021/01/31 02:11:33;;;;;;;4.40;3.97;;;;;;;;;;5091965;28;20488;-58
2021/01/31 02:14:07;;;;;;;5.33;4.53;;;;;;;;;;5074758;28;20740;-58
2021/01/31 02:16:39;;;;;;;5.30;4.80;;;;;;;;;;5088957;28;20436;-58
2021/01/31 02:19:11;;;;;;;5.53;4.53;;;;;;;;;;5094015;28;20562;-58
2021/01/31 02:21:52;;;;;;;4.83;4.43;;;;;;;;;;5079437;28;20425;-58
2021/01/31 02:24:37;;;;;;;5.83;4.73;;;;;;;;;;5090391;28;20449;-60
2021/01/31 02:27:17;;;;;;;5.37;4.60;;;;;;;;;;5090073;28;20481;-58
2021/01/31 02:30:12;;;;;;;4.20;3.80;;;;;;;;;;5093624;28;20440;-58
2021/01/31 02:32:38;;;;;;;5.63;5.00;;;;;;;;;;5093026;28;20437;-58
2021/01/31 02:35:10;;;;;;;5.30;4.50;;;;;;;;;;5073685;28;20430;-60
2021/01/31 02:37:58;;;;;;;5.70;4.47;;;;;;;;;;5091039;28;20421;-58
2021/01/31 02:40:36;;;;;;;5.73;4.77;;;;;;;;;;5078926;28;20444;-58
2021/01/31 02:43:17;;;;;;;5.17;4.53;;;;;;;;;;5096337;28;20464;-58
2021/01/31 02:45:59;;;;;;;4.73;4.23;;;;;;;;;;5103579;28;20571;-58
2021/01/31 02:48:28;;;;;;;6.80;5.10;;;;;;;;;;5079286;28;20481;-58
2021/01/31 02:50:57;;;;;;;6.00;4.57;;;;;;;;;;5093981;28;20757;-60
2021/01/31 02:53:27;;;;;;;5.23;4.43;;;;;;;;;;5091595;28;20429;-58
2021/01/31 02:56:00;;;;;;;4.70;4.20;;;;;;;;;;5094489;28;20417;-58
2021/01/31 02:58:29;;;;;;;5.27;4.40;;;;;;;;;;5100235;28;20416;-59
2021/01/31 03:00:59;;;;;;;5.53;4.90;;;;;;;;;;5101545;28;20445;-59
2021/01/31 03:03:29;;;;;;;4.60;3.93;;;;;;;;;;5077941;28;20518;-58
2021/01/31 03:06:00;;;;;;;4.90;4.40;;;;;;;;;;5097911;28;20464;-58
2021/01/31 03:08:27;;;;;;;5.20;4.70;;;;;;;;;;5099243;28;20525;-58
2021/01/31 03:10:56;;;;;;;4.97;4.47;;;;;;;;;;5106457;28;20449;-58
2021/01/31 03:13:55;;;;;;;5.50;4.33;;;;;;;;;;5087336;28;20413;-58
2021/01/31 03:16:34;;;;;;;5.27;4.53;;;;;;;;;;5038097;28;20432;-58
2021/01/31 03:19:27;;;;;;;5.10;4.60;;;;;;;;;;5100815;28;20520;-58
2021/01/31 03:21:56;;;;;;;5.67;3.83;;;;;;;;;;5082621;28;20430;-58
2021/01/31 03:24:28;;;;;;;4.97;3.90;;;;;;;;;;5094405;28;20425;-58
2021/01/31 03:26:57;;;;;;;5.70;4.97;;;;;;;;;;5103636;28;20512;-58
2021/01/31 03:29:24;;;;;;;5.73;4.73;;;;;;;;;;5085844;28;20469;-59
2021/01/31 03:31:52;;;;;;;5.03;4.53;;;;;;;;;;5098891;28;20482;-58
2021/01/31 03:34:21;;;;;;;5.10;4.60;;;;;;;;;;5107031;28;20417;-58
2021/01/31 03:36:50;;;;;;;5.57;4.50;;;;;;;;;;5085814;28;20418;-58
2021/01/31 03:39:16;;;;;;;4.77;4.17;;;;;;;;;;5096567;28;20414;-58
2021/01/31 03:41:43;;;;;;;5.37;4.43;;;;;;;;;;5090513;28;20922;-58
2021/01/31 03:44:09;;;;;;;5.20;4.70;;;;;;;;;;5099291;28;20479;-59
2021/01/31 03:46:49;;;;;;;4.83;4.33;;;;;;;;;;5100536;28;20425;-58
2021/01/31 03:49:41;;;;;;;4.63;4.00;;;;;;;;;;5096820;28;20567;-59
2021/01/31 03:52:07;;;;;;;4.87;4.37;;;;;;;;;;5072879;28;20942;-59
2021/01/31 03:54:34;;;;;;;4.90;4.40;;;;;;;;;;5105855;28;20980;-58
2021/01/31 03:57:03;;;;;;;4.93;4.43;;;;;;;;;;5109495;28;20413;-59
2021/01/31 03:59:31;;;;;;;4.80;4.17;;;;;;;;;;5087121;28;20474;-59
2021/01/31 04:01:59;;;;;;;5.60;4.97;;;;;;;;;;5090665;28;20449;-59
2021/01/31 04:04:51;;;;;;;5.17;4.47;;;;;;;;;;5097738;28;21013;-60
2021/01/31 04:07:21;;;;;;;4.73;4.23;;;;;;;;;;5089607;28;20789;-58
2021/01/31 04:09:48;;;;;;;6.03;4.23;;;;;;;;;;5100405;28;20453;-58
2021/01/31 04:12:16;;;;;;;5.07;4.57;;;;;;;;;;5102692;28;20508;-58
2021/01/31 04:14:48;;;;;;;5.47;4.60;;;;;;;;;;5084263;28;20410;-58
2021/01/31 04:17:14;;;;;;;4.90;4.40;;;;;;;;;;5087961;28;20967;-58
2021/01/31 04:19:40;;;;;;;5.27;4.17;;;;;;;;;;5064511;28;20830;-60
2021/01/31 04:22:06;;;;;;;4.77;4.23;;;;;;;;;;5084364;28;20716;-58
2021/01/31 04:24:33;;;;;;;4.80;4.30;;;;;;;;;;5089566;28;20421;-58
2021/01/31 04:26:59;;;;;;;4.37;3.80;;;;;;;;;;5101078;28;20421;-58
2021/01/31 04:29:25;;;;;;;5.47;4.03;;;;;;;;;;5107058;28;20421;-58
2021/01/31 04:31:52;;;;;;;5.37;4.10;;;;;;;;;;5108102;28;21039;-58
2021/01/31 04:34:18;;;;;;;4.50;4.10;;;;;;;;;;5106977;28;20832;-58
2021/01/31 04:36:44;;;;;;;6.43;4.23;;;;;;;;;;5104848;28;20438;-58
2021/01/31 04:39:11;;;;;;;5.17;4.20;;;;;;;;;;5107799;28;21266;-58
2021/01/31 04:41:38;;;;;;;5.77;4.50;;;;;;;;;;5083444;28;20521;-58
2021/01/31 04:44:06;;;;;;;4.87;3.83;;;;;;;;;;5105886;28;20511;-58
2021/01/31 04:46:52;;;;;;;4.73;4.23;;;;;;;;;;5100066;28;20910;-58
2021/01/31 04:49:36;;;;;;;5.77;4.30;;;;;;;;;;5098335;28;20412;-58
2021/01/31 04:52:21;;;;;;;4.70;4.10;;;;;;;;;;5072622;28;20432;-58
2021/01/31 04:54:55;;;;;;;4.43;3.83;;;;;;;;;;5109135;28;20966;-58
2021/01/31 04:57:24;;;;;;;5.10;4.60;;;;;;;;;;5100457;28;20501;-58
2021/01/31 04:59:51;;;;;;;5.23;4.27;;;;;;;;;;5102280;28;20417;-58
2021/01/31 05:02:33;;;;;;;5.17;4.57;;;;;;;;;;5098338;28;20471;-58
2021/01/31 05:05:01;;;;;;;5.00;4.50;;;;;;;;;;5092200;28;20457;-59
2021/01/31 05:07:39;;;;;;;4.67;4.27;;;;;;;;;;5082684;28;20561;-58
2021/01/31 05:10:09;;;;;;;5.40;4.40;;;;;;;;;;5076806;28;20458;-58
2021/01/31 05:12:54;;;;;;;5.10;4.20;;;;;;;;;;5099638;28;20927;-60
2021/01/31 05:15:26;;;;;;;5.60;4.57;;;;;;;;;;5088690;28;20417;-58
2021/01/31 05:17:53;;;;;;;5.17;4.60;;;;;;;;;;5094552;28;20495;-58
2021/01/31 05:20:22;;;;;;;5.73;4.67;;;;;;;;;;5082522;28;20435;-58
2021/01/31 05:22:53;;;;;;;4.87;4.33;;;;;;;;;;5090160;28;20477;-57
2021/01/31 05:25:23;;;;;;;5.00;4.27;;;;;;;;;;5100080;28;20439;-58
2021/01/31 05:27:53;;;;;;;5.63;4.50;;;;;;;;;;5107939;28;20417;-58
2021/01/31 05:30:20;;;;;;;5.53;4.90;;;;;;;;;;5108593;28;20453;-58
2021/01/31 05:33:06;;;;;;;5.27;4.40;;;;;;;;;;5106312;28;20421;-58
2021/01/31 05:35:34;;;;;;;5.40;4.53;;;;;;;;;;5088705;28;20529;-58
2021/01/31 05:38:01;;;;;;;5.27;4.53;;;;;;;;;;5104677;28;20437;-59
2021/01/31 05:40:29;;;;;;;5.37;4.70;;;;;;;;;;5101567;28;20426;-58
2021/01/31 05:42:55;;;;;;;4.87;4.37;;;;;;;;;;5080513;28;20505;-58
2021/01/31 05:45:21;;;;;;;5.00;4.20;;;;;;;;;;5103603;28;20883;-59
2021/01/31 05:47:54;;;;;;;5.43;4.30;;;;;;;;;;5107925;28;20425;-58
2021/01/31 05:50:20;;;;;;;5.30;4.63;;;;;;;;;;5104415;28;20534;-59
2021/01/31 05:52:46;;;;;;;5.87;4.80;;;;;;;;;;5107426;28;20433;-59
2021/01/31 05:55:31;;;;;;;5.23;4.13;;;;;;;;;;5083405;28;20946;-59
2021/01/31 05:58:13;;;;;;;5.33;4.20;;;;;;;;;;5106103;28;20762;-58
2021/01/31 06:00:39;;;;;;;4.97;4.43;;;;;;;;;;5106578;28;20416;-58
2021/01/31 06:03:07;;;;;;;5.87;4.70;;;;;;;;;;5107773;28;20424;-58
2021/01/31 06:05:34;;;;;;;5.10;4.60;;;;;;;;;;5106846;28;20816;-58
2021/01/31 06:08:20;;;;;;;5.13;4.60;;;;;;;;;;5099841;28;20446;-58
2021/01/31 06:10:58;;;;;;;5.53;4.70;;;;;;;;;;5082789;28;20500;-58
2021/01/31 06:13:25;;;;;;;4.77;4.13;;;;;;;;;;5108687;28;20418;-58
2021/01/31 06:15:56;;;;;;;6.23;5.10;;;;;;;;;;5105571;28;20793;-58
2021/01/31 06:18:26;;;;;;;5.33;4.63;;;;;;;;;;5102264;28;20428;-58
2021/01/31 06:20:53;;;;;;;4.77;3.87;;;;;;;;;;5107206;28;20452;-58
2021/01/31 06:23:20;;;;;;;5.60;4.50;;;;;;;;;;5088779;28;20463;-58
2021/01/31 06:25:47;;;;;;;5.20;4.07;;;;;;;;;;5109017;28;20425;-58
2021/01/31 06:28:16;;;;;;;7.07;4.90;;;;;;;;;;5108872;28;20416;-58
2021/01/31 06:30:42;;;;;;;5.43;4.47;;;;;;;;;;5104792;28;20601;-59
2021/01/31 06:33:08;;;;;;;5.73;4.67;;;;;;;;;;5085422;28;20939;-57
2021/01/31 06:35:35;;;;;;;6.33;4.70;;;;;;;;;;5111516;28;20417;-58
2021/01/31 06:38:06;;;;;;;5.37;4.87;;;;;;;;;;5106186;28;20456;-58
2021/01/31 06:40:38;;;;;;;5.20;4.70;;;;;;;;;;5102957;28;20424;-60
2021/01/31 06:43:04;;;;;;;6.20;4.90;;;;;;;;;;5108757;28;20424;-58
2021/01/31 06:45:30;;;;;;;5.87;4.90;;;;;;;;;;5085936;28;20871;-58
2021/01/31 06:48:00;;;;;;;5.07;4.57;;;;;;;;;;5084074;28;20426;-58
2021/01/31 06:50:39;;;;;;;6.00;4.53;;;;;;;;;;5103435;28;21023;-59
2021/01/31 06:53:17;;;;;;;6.10;4.80;;;;;;;;;;5105126;28;20440;-58
2021/01/31 06:55:49;;;;;;;6.60;5.07;;;;;;;;;;5104766;28;20794;-58
2021/01/31 06:58:19;;;;;;;5.47;4.60;;;;;;;;;;5101860;28;20424;-58
2021/01/31 07:00:45;;;;;;;5.40;4.57;;;;;;;;;;5101654;28;20421;-58
2021/01/31 07:03:31;;;;;;;5.83;4.63;;;;;;;;;;5105218;28;20433;-58
2021/01/31 07:06:01;;;;;;;5.93;4.70;;;;;;;;;;5100626;28;20879;-60
2021/01/31 07:08:33;;;;;;;7.87;5.37;;;;;;;;;;5082953;27;20441;-60
2021/01/31 07:11:06;;;;;;;5.47;4.90;;;;;;;;;;5099885;28;20449;-58
2021/01/31 07:13:38;;;;;;;6.40;4.90;;;;;;;;;;5104539;28;20503;-58
2021/01/31 07:16:10;;;;;;;5.50;4.70;;;;;;;;;;5102426;28;20615;-57
2021/01/31 07:18:40;;;;;;;5.37;4.47;;;;;;;;;;5108852;28;20771;-57
2021/01/31 07:21:18;;;;;;;6.43;4.40;;;;;;;;;;5100396;28;20440;-58
2021/01/31 07:23:46;;;;;;;5.90;4.70;;;;;;;;;;5102736;28;20459;-58
2021/01/31 07:26:15;;;;;;;5.43;4.63;;;;;;;;;;5099980;28;20504;-58
2021/01/31 07:28:42;;;;;;;6.43;4.97;;;;;;;;;;5073618;28;20458;-59
2021/01/31 07:31:12;;;;;;;7.40;4.87;;;;;;;;;;5085500;28;20548;-58
2021/01/31 07:33:48;;;;;;;6.47;4.90;;;;;;;;;;5095476;28;20555;-58
2021/01/31 07:36:22;;;;;;;5.53;4.80;;;;;;;;;;5098292;28;20826;-58
2021/01/31 07:39:00;;;;;;;6.63;5.43;;;;;;;;;;5107065;28;20443;-58
2021/01/31 07:41:27;;;;;;;6.23;4.53;;;;;;;;;;5091373;28;20956;-58
2021/01/31 07:43:59;;;;;;;5.97;4.60;;;;;;;;;;5099556;28;20471;-58
2021/01/31 07:46:25;;;;;;;7.60;4.90;;;;;;;;;;5089026;28;20436;-57
2021/01/31 07:48:51;;;;;;;6.17;4.80;;;;;;;;;;5080718;28;20474;-58
2021/01/31 07:51:41;;;;;;;5.97;4.93;;;;;;;;;;5100220;28;20468;-58
2021/01/31 07:54:36;;;;;;;5.40;4.87;;;;;;;;;;5084043;28;20953;-58
2021/01/31 07:57:21;;;;;;;6.10;5.13;;;;;;;;;;5078719;28;20532;-58
2021/01/31 07:59:48;;;;;;;6.37;4.67;;;;;;;;;;5102531;28;20894;-58
2021/01/31 08:02:30;;;;;;;6.57;5.13;;;;;;;;;;5107234;28;20417;-60
2021/01/31 08:04:56;;;;;;;7.70;4.83;;;;;;;;;;5100906;28;20962;-58
2021/01/31 08:07:41;;;;;;;6.17;4.80;;;;;;;;;;5083277;28;20819;-59
2021/01/31 08:10:07;;;;;;;5.57;4.53;;;;;;;;;;5099504;28;20461;-58
2021/01/31 08:13:06;;;;;;;6.17;5.47;;;;;;;;;;5100528;28;20444;-58
2021/01/31 08:15:32;;;;;;;6.07;5.00;;;;;;;;;;5030622;28;20740;-58
2021/01/31 08:17:58;;;;;;;7.00;4.67;;;;;;;;;;5093768;28;20421;-59
2021/01/31 08:20:30;;;;;;;5.80;5.17;;;;;;;;;;5092917;28;20897;-58
2021/01/31 08:23:23;;;;;;;7.10;4.90;;;;;;;;;;5099896;28;20937;-58
2021/01/31 08:25:59;;;;;;;5.27;4.77;;;;;;;;;;5063785;28;20435;-58
2021/01/31 08:28:29;;;;;;;6.63;5.13;;;;;;;;;;5104403;28;20435;-58
2021/01/31 08:31:02;;;;;;;6.33;4.90;;;;;;;;;;5101608;28;20927;-57
2021/01/31 08:33:29;;;;;;;7.43;5.33;;;;;;;;;;5108242;28;20800;-59
2021/01/31 08:36:03;;;;;;;6.30;5.70;;;;;;;;;;5099454;28;20536;-58
2021/01/31 08:38:31;;;;;;;6.57;5.33;;;;;;;;;;5101909;28;20850;-58
2021/01/31 08:41:03;;;;;;;6.27;5.63;;;;;;;;;;5097262;28;20426;-58
2021/01/31 08:43:39;;;;;;;5.23;4.53;;;;;;;;;;5097657;28;20421;-58
2021/01/31 08:46:10;;;;;;;6.27;4.80;;;;;;;;;;5103232;28;20502;-58
2021/01/31 08:48:36;;;;;;;6.70;5.10;;;;;;;;;;5090592;28;20424;-58
2021/01/31 08:51:04;;;;;;;8.07;5.53;;;;;;;;;;5090869;28;20488;-58
2021/01/31 08:53:30;;;;;;;6.57;4.93;;;;;;;;;;5090550;28;20840;-58
2021/01/31 08:56:11;;;;;;;6.10;4.63;;;;;;;;;;5105303;28;20902;-59
2021/01/31 08:58:38;;;;;;;5.33;4.20;;;;;;;;;;5101387;28;20444;-58
2021/01/31 09:01:10;;;;;;;5.87;5.10;;;;;;;;;;5096727;28;20421;-58
2021/01/31 09:03:40;;;;;;;7.20;5.63;;;;;;;;;;5098004;28;20460;-58
2021/01/31 09:06:07;;;;;;;5.77;5.20;;;;;;;;;;5080196;28;20457;-57
2021/01/31 09:08:33;;;;;;;7.77;5.70;;;;;;;;;;5103687;28;20535;-58
2021/01/31 09:11:03;;;;;;;7.23;5.57;;;;;;;;;;5108193;28;20456;-58
2021/01/31 09:13:30;;;;;;;5.90;4.70;;;;;;;;;;5096028;28;20418;-58
2021/01/31 09:16:15;;;;;;;6.77;5.40;;;;;;;;;;5107189;28;20433;-58
2021/01/31 09:18:41;;;;;;;6.50;5.30;;;;;;;;;;5087192;28;20500;-58
2021/01/31 09:21:40;;;;;;;8.57;5.83;;;;;;;;;;5107672;28;20934;-58
2021/01/31 09:24:10;;;;;;;6.80;5.50;;;;;;;;;;5034035;28;20435;-58
2021/01/31 09:26:37;;;;;;;5.90;4.60;;;;;;;;;;5090105;27;20426;-58
2021/01/31 09:29:07;;;;;;;7.87;5.77;;;;;;;;;;5085756;27;20417;-58
2021/01/31 09:31:33;;;;;;;9.40;6.43;;;;;;;;;;5098079;28;20448;-58
2021/01/31 09:34:00;;;;;;;7.13;5.57;;;;;;;;;;5106853;28;20417;-58
2021/01/31 09:36:34;;;;;;;6.60;5.13;;;;;;;;;;5107137;28;20417;-58
2021/01/31 09:39:03;;;;;;;5.33;4.83;;;;;;;;;;5093004;28;20421;-58
2021/01/31 09:41:30;;;;;;;7.00;5.67;;;;;;;;;;5107035;28;20505;-59
2021/01/31 09:44:07;;;;;;;6.40;5.70;;;;;;;;;;5087715;28;20473;-58
2021/01/31 09:46:34;;;;;;;8.97;6.70;;;;;;;;;;5106357;28;20508;-58
2021/01/31 09:49:03;;;;;;;7.17;5.30;;;;;;;;;;5100504;28;20421;-58
2021/01/31 09:51:29;;;;;;;6.67;5.17;;;;;;;;;;5108560;28;20889;-58
2021/01/31 09:53:55;;;;;;;7.07;5.73;;;;;;;;;;5089027;28;20417;-58
2021/01/31 09:56:36;;;;;;;7.00;5.57;;;;;;;;;;5099187;28;20837;-58
2021/01/31 09:59:02;;;;;;;6.40;5.40;;;;;;;;;;5095942;28;20434;-58
2021/01/31 10:01:31;;;;;;;6.53;5.20;;;;;;;;;;5095021;28;20417;-58
2021/01/31 10:04:01;;;;;;;7.27;6.13;;;;;;;;;;5100772;28;20421;-58
2021/01/31 10:06:32;;;;;;;7.43;5.83;;;;;;;;;;5090263;28;20438;-57
2021/01/31 10:09:00;;;;;;;7.47;6.20;;;;;;;;;;5068486;28;20480;-58
2021/01/31 10:11:27;;;;;;;7.83;6.10;;;;;;;;;;5101552;28;20449;-58
2021/01/31 10:13:54;;;;;;;7.47;6.40;;;;;;;;;;5090157;28;20951;-58
2021/01/31 10:16:25;;;;;;;7.10;5.73;;;;;;;;;;5073817;28;20410;-58
2021/01/31 10:18:51;;;;;;;7.17;5.73;;;;;;;;;;5102289;28;20417;-58
2021/01/31 10:21:17;;;;;;;7.13;5.23;;;;;;;;;;5104874;28;20481;-58
2021/01/31 10:23:48;;;;;;;7.00;5.60;;;;;;;;;;5088155;28;20421;-58
2021/01/31 10:26:21;;;;;;;7.10;5.87;;;;;;;;;;5107663;28;20504;-58
2021/01/31 10:28:52;;;;;;;6.80;5.13;;;;;;;;;;5089772;28;20439;-58
2021/01/31 10:31:25;;;;;;;8.83;5.73;;;;;;;;;;5090061;28;20540;-58
2021/01/31 10:33:52;;;;;;;8.17;5.70;;;;;;;;;;5104466;28;20456;-58
2021/01/31 10:36:29;;;;;;;7.67;6.33;;;;;;;;;;5105385;28;20508;-58
2021/01/31 10:38:56;;;;;;;6.73;5.67;;;;;;;;;;5088182;28;20424;-58
2021/01/31 10:41:23;;;;;;;7.60;6.23;;;;;;;;;;5106280;28;20482;-59
2021/01/31 10:44:03;;;;;;;7.60;6.10;;;;;;;;;;5107074;28;20900;-59
2021/01/31 10:46:30;;;;;;;6.23;5.60;;;;;;;;;;5100830;28;20420;-58
2021/01/31 10:48:56;;;;;;;6.83;5.53;;;;;;;;;;5105785;28;20542;-58
2021/01/31 10:51:23;;;;;;;8.20;5.67;;;;;;;;;;5107213;28;20471;-59
2021/01/31 10:53:49;;;;;;;7.17;5.97;;;;;;;;;;5083532;28;20529;-58
2021/01/31 10:56:15;;;;;;;7.00;5.60;;;;;;;;;;5106447;28;20468;-60
2021/01/31 10:58:41;;;;;;;9.20;6.33;;;;;;;;;;5089223;28;20425;-58
2021/01/31 11:01:08;;;;;;;7.97;5.83;;;;;;;;;;5109876;28;20906;-58
2021/01/31 11:03:34;;;;;;;6.57;5.50;;;;;;;;;;5106418;28;20778;-58
2021/01/31 11:06:00;;;;;;;8.90;5.93;;;;;;;;;;5110856;28;20537;-59
2021/01/31 11:08:29;;;;;;;6.30;5.23;;;;;;;;;;5086133;28;20448;-58
2021/01/31 11:10:55;;;;;;;7.00;5.73;;;;;;;;;;5083258;28;20450;-58
2021/01/31 11:13:21;;;;;;;6.77;5.90;;;;;;;;;;5102648;28;20499;-58
2021/01/31 11:15:48;;;;;;;7.40;6.00;;;;;;;;;;5091290;28;20430;-58
2021/01/31 11:18:14;;;;;;;8.37;6.73;;;;;;;;;;5096863;27;20586;-58
2021/01/31 11:20:40;;;;;;;6.53;5.07;;;;;;;;;;5096964;28;20520;-58
2021/01/31 11:23:06;;;;;;;7.33;5.80;;;;;;;;;;5086332;28;20435;-59
2021/01/31 11:25:32;;;;;;;7.17;5.40;;;;;;;;;;5095195;28;20429;-60
2021/01/31 11:27:58;;;;;;;6.83;5.13;;;;;;;;;;5103584;28;20190;-59
2021/01/31 11:30:24;;;;;;;6.63;5.60;;;;;;;;;;5096527;28;20549;-58
2021/01/31 11:32:50;;;;;;;6.93;5.73;;;;;;;;;;5081623;28;20429;-58
2021/01/31 11:35:16;;;;;;;7.73;6.30;;;;;;;;;;5097866;27;20432;-57
2021/01/31 11:37:42;;;;;;;7.67;6.00;;;;;;;;;;5104457;28;20771;-57
2021/01/31 11:40:09;;;;;;;7.40;6.10;;;;;;;;;;5100419;28;20422;-57
2021/01/31 11:42:35;;;;;;;7.53;5.93;;;;;;;;;;5081502;28;20553;-58
2021/01/31 11:45:01;;;;;;;7.23;6.07;;;;;;;;;;5098672;28;20862;-59
2021/01/31 11:47:27;;;;;;;6.13;5.03;;;;;;;;;;5086176;28;20500;-58
2021/01/31 11:49:54;;;;;;;7.63;5.87;;;;;;;;;;5099856;28;20472;-59
2021/01/31 11:52:20;;;;;;;5.93;5.30;;;;;;;;;;5090649;28;20453;-58
2021/01/31 11:54:46;;;;;;;6.40;5.57;;;;;;;;;;5099963;28;20958;-58
2021/01/31 11:57:13;;;;;;;8.57;6.03;;;;;;;;;;5097918;28;20429;-58
2021/01/31 11:59:40;;;;;;;8.13;6.00;;;;;;;;;;5097161;28;20528;-58
2021/01/31 12:02:06;;;;;;;7.93;6.17;;;;;;;;;;5084158;28;20537;-60
2021/01/31 12:04:33;;;;;;;6.57;5.73;;;;;;;;;;5091515;28;20949;-58
2021/01/31 12:06:59;;;;;;;6.97;5.43;;;;;;;;;;5098138;28;20536;-58
2021/01/31 12:09:25;;;;;;;6.47;4.93;;;;;;;;;;5103219;28;20461;-58
2021/01/31 12:11:51;;;;;;;7.60;5.93;;;;;;;;;;5097277;28;20472;-58
2021/01/31 12:14:17;;;;;;;6.73;5.73;;;;;;;;;;5087044;28;20424;-58
2021/01/31 12:16:44;;;;;;;7.07;5.10;;;;;;;;;;5079031;28;20434;-59
2021/01/31 12:19:10;;;;;;;7.30;6.13;;;;;;;;;;5109909;28;20466;-57
2021/01/31 12:21:36;;;;;;;6.80;5.97;;;;;;;;;;5104599;28;20441;-59
2021/01/31 12:24:02;;;;;;;6.00;5.23;;;;;;;;;;5079035;28;20961;-57
2021/01/31 12:26:28;;;;;;;6.70;5.37;;;;;;;;;;5101070;28;20421;-58
2021/01/31 12:28:55;;;;;;;7.57;5.77;;;;;;;;;;5103863;28;20425;-59
2021/01/31 12:31:21;;;;;;;9.87;6.03;;;;;;;;;;5103910;28;20842;-58
2021/01/31 12:33:47;;;;;;;7.33;6.13;;;;;;;;;;5094192;28;20432;-60
2021/01/31 12:36:13;;;;;;;7.33;5.87;;;;;;;;;;5091882;28;20424;-59
2021/01/31 12:38:39;;;;;;;7.67;6.57;;;;;;;;;;5109149;28;20171;-58
2021/01/31 12:41:05;;;;;;;6.90;5.40;;;;;;;;;;5103707;28;20426;-58
2021/01/31 12:43:31;;;;;;;6.07;5.17;;;;;;;;;;5096330;28;20532;-59
2021/01/31 12:45:57;;;;;;;6.40;5.63;;;;;;;;;;5103795;28;20425;-59
2021/01/31 12:48:23;;;;;;;7.47;6.00;;;;;;;;;;5083272;28;20441;-58
2021/01/31 12:50:49;;;;;;;7.57;5.80;;;;;;;;;;5095378;27;20510;-60
2021/01/31 12:53:15;;;;;;;7.13;5.80;;;;;;;;;;5075358;28;21053;-59
2021/01/31 12:55:41;;;;;;;6.10;5.50;;;;;;;;;;5094425;28;20456;-59
2021/01/31 12:58:10;;;;;;;8.73;6.13;;;;;;;;;;5089634;28;20427;-58
2021/01/31 13:00:36;;;;;;;7.23;5.53;;;;;;;;;;5102259;28;20424;-57
2021/01/31 13:03:02;;;;;;;7.57;6.13;;;;;;;;;;5108111;28;20432;-58
2021/01/31 13:05:31;;;;;;;7.10;5.70;;;;;;;;;;5109008;28;20492;-58
2021/01/31 13:07:58;;;;;;;5.93;5.17;;;;;;;;;;5102370;28;20458;-57
2021/01/31 13:10:24;;;;;;;8.50;6.87;;;;;;;;;;5097156;28;20465;-58
2021/01/31 13:12:50;;;;;;;7.23;5.77;;;;;;;;;;5108114;28;20413;-58
2021/01/31 13:15:17;;;;;;;6.90;6.20;;;;;;;;;;5105946;28;21181;-58
2021/01/31 13:17:43;;;;;;;7.67;6.03;;;;;;;;;;5099246;28;20456;-59
2021/01/31 13:20:09;;;;;;;6.20;5.53;;;;;;;;;;5100896;28;20409;-58
2021/01/31 13:22:38;;;;;;;6.63;5.27;;;;;;;;;;5107987;28;20274;-57
2021/01/31 13:25:05;;;;;;;6.07;5.37;;;;;;;;;;5109293;28;20456;-60
2021/01/31 13:27:31;;;;;;;6.03;5.40;;;;;;;;;;5104119;28;20459;-59
2021/01/31 13:29:57;;;;;;;7.67;5.77;;;;;;;;;;5087070;28;20421;-58
2021/01/31 13:32:24;;;;;;;6.07;5.47;;;;;;;;;;5108259;28;20440;-58
2021/01/31 13:34:50;;;;;;;7.37;5.40;;;;;;;;;;5100364;28;20266;-58
2021/01/31 13:37:16;;;;;;;6.27;5.43;;;;;;;;;;5105811;28;20232;-58
2021/01/31 13:39:42;;;;;;;9.13;6.37;;;;;;;;;;5103799;28;20453;-59
2021/01/31 13:42:08;;;;;;;7.43;6.00;;;;;;;;;;5102773;28;20507;-58
2021/01/31 13:44:34;;;;;;;6.90;5.80;;;;;;;;;;5088862;28;20429;-59
2021/01/31 13:47:01;;;;;;;7.40;6.13;;;;;;;;;;5090771;28;20508;-58
2021/01/31 13:49:27;;;;;;;7.23;5.93;;;;;;;;;;5099086;28;20417;-59
2021/01/31 13:51:53;;;;;;;6.40;5.70;;;;;;;;;;5090270;28;20494;-58
2021/01/31 13:54:19;;;;;;;5.87;5.17;;;;;;;;;;5089303;28;20413;-58
2021/01/31 13:56:45;;;;;;;6.77;5.70;;;;;;;;;;5107678;28;20187;-58
2021/01/31 13:59:17;;;;;;;7.00;5.73;;;;;;;;;;5094057;28;20451;-58
2021/01/31 14:01:43;;;;;;;6.00;5.20;;;;;;;;;;5106101;28;20183;-58
2021/01/31 14:04:09;;;;;;;6.63;5.80;;;;;;;;;;5100637;28;20421;-58
2021/01/31 14:06:37;;;;;;;6.47;5.50;;;;;;;;;;5097755;28;21191;-58
2021/01/31 14:09:03;;;;;;;6.20;5.23;;;;;;;;;;5101825;28;20854;-58
2021/01/31 14:11:29;;;;;;;7.07;5.63;;;;;;;;;;5088378;28;20469;-58
2021/01/31 14:13:55;;;;;;;5.77;5.10;;;;;;;;;;5099062;28;20421;-58
2021/01/31 14:16:23;;;;;;;6.57;5.40;;;;;;;;;;5090246;28;20417;-58
2021/01/31 14:18:49;;;;;;;6.37;5.70;;;;;;;;;;5087459;28;20421;-58
2021/01/31 14:21:15;;;;;;;7.77;6.10;;;;;;;;;;5077105;28;20413;-59
2021/01/31 14:23:42;;;;;;;7.87;5.63;;;;;;;;;;5068608;28;20188;-58
2021/01/31 14:26:09;;;;;;;6.27;5.30;;;;;;;;;;5108308;28;20425;-58
2021/01/31 14:28:35;;;;;;;6.60;5.87;;;;;;;;;;5090711;28;20425;-58
2021/01/31 14:31:01;;;;;;;9.73;6.17;;;;;;;;;;5102408;28;20704;-58
2021/01/31 14:33:27;;;;;;;5.03;4.53;;;;;;;;;;5101074;28;20674;-58
2021/01/31 14:35:53;;;;;;;6.63;5.33;;;;;;;;;;5106200;28;20421;-59
2021/01/31 14:38:19;;;;;;;5.90;5.27;;;;;;;;;;5104629;28;20455;-58
2021/01/31 14:40:45;;;;;;;6.97;5.33;;;;;;;;;;5108612;28;20660;-60
2021/01/31 14:43:11;;;;;;;7.30;5.47;;;;;;;;;;5111905;28;20258;-58
2021/01/31 14:45:37;;;;;;;6.93;5.37;;;;;;;;;;5077322;28;20317;-58
2021/01/31 14:48:04;;;;;;;6.43;5.13;;;;;;;;;;5112093;28;20511;-60
2021/01/31 14:50:30;;;;;;;5.40;4.50;;;;;;;;;;5089411;28;20191;-58
2021/01/31 14:52:56;;;;;;;6.00;4.80;;;;;;;;;;5104645;28;20436;-57
2021/01/31 14:55:27;;;;;;;6.47;5.50;;;;;;;;;;5105493;28;20509;-58
2021/01/31 14:57:53;;;;;;;6.10;5.07;;;;;;;;;;5106289;28;20586;-58